Flight Track Log - Related Links

Times and Time Zones

All times are in EDT time to prevent confusion due to time zone crossing. See the N238BG flight status page for this flight to view local times or setup timezone preferences in your user account.

Time Position Orientation Groundspeed Altitude Reporting Facility
EDT Latitude Longitude Course Direction KTS MPH feet Rate Location/Type
Mon 02:23:07 PM 35.4606 -87.5122 253° West 288 331 13,500  Level Memphis Center
Mon 02:24:07 PM 35.4433 -87.5792 252° West 221 254 15,300 1,750 Climbing Memphis Center
Mon 02:25:07 PM 35.4242 -87.6461 251° West 211 243 17,000 1,550 Climbing Memphis Center
Mon 02:26:07 PM 35.4150 -87.7100 260° West 201 231 18,400 1,350 Climbing Memphis Center
Mon 02:27:07 PM 35.4061 -87.7817 261° West 201 231 19,700 1,150 Climbing Memphis Center
Mon 02:28:00 PM 35.4279 -87.7219 253° West  Level FlightAware Approximate
Mon 02:28:07 PM 35.3969 -87.8381 259° West 201 231 20,700  Level Memphis Center
Mon 02:29:07 PM 35.3858 -87.9097 259° West 201 231 21,900 1,100 Climbing Memphis Center
Mon 02:30:07 PM 35.3703 -87.9789 255° West 206 237 22,900 1,050 Climbing Memphis Center
Mon 02:31:07 PM 35.3550 -88.0531 256° West 216 249 24,000 1,000 Climbing Memphis Center
Mon 02:32:07 PM 35.3397 -88.1247 255° West 221 254 24,900 950 Climbing Memphis Center
Mon 02:33:07 PM 35.3222 -88.2017 254° West 226 260 25,900 900 Climbing Memphis Center
Mon 02:34:07 PM 35.3069 -88.2783 256° West 226 260 26,700 950 Climbing Memphis Center
Mon 02:35:07 PM 35.2917 -88.3575 257° West 231 266 27,800 1,339 Climbing Memphis Center
Mon 02:36:08 PM 35.2758 -88.4267 254° West 231 266 29,400 1,150 Climbing Memphis Center
Mon 02:37:07 PM 35.2603 -88.4856 252° West 210 242 30,100 655 Climbing Memphis Center
Mon 02:38:07 PM 35.2464 -88.5442 254° West 187 215 30,700 600 Climbing Memphis Center
Mon 02:39:07 PM 35.2286 -88.6108 252° West 203 234 31,300 600 Climbing Memphis Center
Mon 02:40:07 PM 35.2128 -88.6797 254° West 208 239 31,900 350 Climbing Memphis Center
Mon 02:41:07 PM 35.1953 -88.7639 256° West 222 255 32,000 50 Climbing Memphis Center
Mon 02:42:07 PM 35.1756 -88.8506 254° West 249 287 32,000  Level Memphis Center
Mon 02:43:07 PM 35.1600 -88.9450 259° West 267 307 32,000  Level Memphis Center
Mon 02:44:07 PM 35.1400 -89.0392 255° West 286 329 32,000  Level Memphis Center
Mon 02:45:07 PM 35.1181 -89.1411 255° West 295 339 32,000  Level Memphis Center
Mon 02:46:07 PM 35.0942 -89.2403 254° West 300 345 32,000  Level Memphis Center
Mon 02:47:07 PM 35.0719 -89.3422 255° West 307 353 32,000  Level Memphis Center
Mon 02:48:07 PM 35.0497 -89.4439 255° West 307 353 32,000  Level Memphis Center
Mon 02:49:07 PM 35.0256 -89.5481 254° West 312 359 32,000  Level Memphis Center
Mon 02:50:07 PM 35.0033 -89.6522 255° West 318 366 32,000  Level Memphis Center
Mon 02:51:07 PM 34.9828 -89.7564 256° West 318 366 32,000  Level Memphis Center
Mon 02:52:07 PM 34.9583 -89.8656 255° West 324 373 32,000  Level Memphis Center
Mon 02:53:07 PM 34.9294 -89.9694 251° West 324 373 32,000 -50 Level Memphis Center
Mon 02:54:07 PM 34.9047 -90.0708 253° West 319 367 31,900 -50 Descending Memphis Center
Mon 02:55:07 PM 34.8819 -90.1747 255° West 319 367 31,900 50 Level Memphis Center
Mon 02:56:07 PM 34.8572 -90.2761 253° West 319 367 32,000 50 Climbing Memphis Center
Mon 02:57:07 PM 34.8342 -90.3672 253° West 319 367 32,000  Level Memphis Center
Mon 02:58:07 PM 34.8111 -90.4708 255° West 319 367 32,000  Level Memphis Center
Mon 02:59:07 PM 34.7839 -90.5744 252° West 319 367 32,000 -50 Level Memphis Center
Mon 03:00:07 PM 34.7608 -90.6781 255° West 319 367 31,900  Descending Memphis Center
Mon 03:01:07 PM 34.7333 -90.7817 252° West 319 367 32,000 50 Climbing Memphis Center
Mon 03:02:07 PM 34.7078 -90.8875 254° West 319 367 32,000  Level Memphis Center
Mon 03:03:07 PM 34.6825 -90.9911 254° West 324 373 32,000  Level Memphis Center
Mon 03:04:07 PM 34.6547 -91.1044 253° West 324 373 32,000  Level Memphis Center
Mon 03:05:07 PM 34.6289 -91.2078 253° West 319 367 32,000 -50 Level Memphis Center
Mon 03:06:07 PM 34.6072 -91.3158 256° West 319 367 31,900 -50 Descending Memphis Center
Mon 03:07:07 PM 34.5794 -91.4192 252° West 319 367 31,900 50 Level Memphis Center
Mon 03:08:07 PM 34.5514 -91.5247 252° West 324 373 32,000 50 Climbing Memphis Center
Mon 03:09:07 PM 34.5294 -91.6303 256° West 324 373 32,000  Level Memphis Center
Mon 03:10:07 PM 34.5075 -91.7256 254° West 324 373 32,000  Level Memphis Center
Mon 03:11:07 PM 34.4750 -91.8361 250° West 318 366 32,000  Level Memphis Center
Mon 03:12:07 PM 34.4508 -91.9414 254° West 318 366 32,000 -50 Level Memphis Center
Mon 03:13:07 PM 34.4222 -92.0467 252° West 323 372 31,900  Descending Memphis Center
Mon 03:14:07 PM 34.3958 -92.1494 253° West 323 372 32,000 50 Climbing Memphis Center
Mon 03:15:07 PM 34.3692 -92.2544 253° West 323 372 32,000  Level Memphis Center
Mon 03:16:07 PM 34.3425 -92.3619 253° West 323 372 32,000  Level Memphis Center
Mon 03:17:07 PM 34.3261 -92.4697 260° West 318 366 32,000  Level Memphis Center
Mon 03:18:07 PM 34.3075 -92.5775 258° West 324 373 32,000  Level Memphis Center
Mon 03:19:07 PM 34.2847 -92.6825 255° West 324 373 32,000  Level Memphis Center
Mon 03:20:07 PM 34.2658 -92.7925 258° West 335 386 32,000  Level Memphis Center
Mon 03:21:07 PM 34.2450 -92.8975 257° West 335 386 32,000  Level Memphis Center
Mon 03:22:07 PM 34.2242 -93.0022 256° West 335 386 32,000  Level Memphis Center
Mon 03:23:07 PM 34.2050 -93.1072 258° West 335 386 32,000 -50 Level Memphis Center
Mon 03:24:07 PM 34.1819 -93.2144 255° West 335 386 31,900  Descending Memphis Center
Mon 03:26:17 PM 34.1394 -93.4364 257° West 319 367 32,000 32 Climbing Fort Worth Center
Mon 03:27:17 PM 34.1178 -93.5428 256° West 319 367 32,000  Level Fort Worth Center
Mon 03:28:17 PM 34.0961 -93.6464 256° West 319 367 32,000 -50 Level Fort Worth Center
Mon 03:29:17 PM 34.0678 -93.7506 252° West 319 367 31,900  Descending Fort Worth Center
Mon 03:30:17 PM 34.0372 -93.8519 250° West 325 374 32,000  Climbing Fort Worth Center
Mon 03:31:17 PM 34.0067 -93.9533 250° West 325 374 31,900  Descending Fort Worth Center
Mon 03:32:17 PM 33.9761 -94.0575 251° West 330 380 32,000 50 Climbing Fort Worth Center
Mon 03:33:17 PM 33.9453 -94.1561 249° West 330 380 32,000  Level Fort Worth Center
Mon 03:34:17 PM 33.9125 -94.2600 249° West 330 380 32,000  Level Fort Worth Center
Mon 03:35:17 PM 33.8839 -94.3611 251° West 330 380 32,000  Level Fort Worth Center
Mon 03:36:17 PM 33.8528 -94.4622 250° West 330 380 32,000 -100 Level Fort Worth Center
Mon 03:38:17 PM 33.7928 -94.6667 251° West 330 380 31,700 -400 Descending Fort Worth Center
Mon 03:39:17 PM 33.7575 -94.7753 249° West 336 387 30,800 -850 Descending Fort Worth Center
Mon 03:40:17 PM 33.7242 -94.8836 250° West 342 394 30,000 -800 Descending Fort Worth Center
Mon 03:41:17 PM 33.6931 -94.9994 252° West 353 406 29,200 -800 Descending Fort Worth Center
Mon 03:42:17 PM 33.6597 -95.1100 250° West 353 406 28,400 -1,067 Descending Fort Worth Center
Mon 03:44:17 PM 33.5886 -95.3314 249° West 353 406 26,000 -1,267 Descending Fort Worth Center
Mon 03:45:17 PM 33.5506 -95.4419 248° West 358 412 24,600 -1,400 Descending Fort Worth Center
Mon 03:46:17 PM 33.5189 -95.5497 251° West 358 412 23,200 -1,400 Descending Fort Worth Center
Mon 03:47:17 PM 33.4911 -95.6450 251° West 337 388 21,800 -2,300 Descending Fort Worth Center
Mon 03:48:17 PM 33.4550 -95.7553 249° West 329 379 18,600 -3,200 Descending Fort Worth Center
Mon 03:50:00 PM 33.3918 -95.9129 244° Southwest  Level FlightAware Approximate
Mon 03:57:00 PM 33.1692 -96.5734 253° West  Level FlightAware Approximate
Mon 03:58:00 PM 33.1667 -96.5833 253° West  Level FlightAware Approximate
Mon 03:59:00 PM 33.1771 -96.5888 253° West  Level Estimated
Mon 04:00:00 PM 33.1771 -96.5888 253° West  Level Estimated
Mon 04:01:00 PM 33.1771 -96.5888 253° West  Level Estimated
Mon 04:02:00 PM 33.1771 -96.5888 253° West  Level Estimated
Mon 04:03:00 PM 33.1771 -96.5888 253° West  Level Estimated
Mon 04:04:00 PM 33.1771 -96.5888 253° West  Level Estimated
Mon 04:05:00 PM 33.1771 -96.5888 253° West  Level Estimated
Mon 04:06:00 PM 33.1771 -96.5888 253° West  Level Estimated
Mon 04:07:00 PM 33.1771 -96.5888 253° West  Level Estimated
Mon 04:08:00 PM 33.1771 -96.5888 253° West  Level Estimated
Mon 04:09:00 PM 33.1771 -96.5888 253° West  Level Estimated
Mon 04:10:00 PM 33.1771 -96.5888 253° West  Level Estimated
Mon 04:11:00 PM 33.1771 -96.5888 253° West  Level Estimated
Mon 04:12:00 PM 33.1771 -96.5888 253° West  Level Estimated
Mon 04:13:00 PM 33.1771 -96.5888 253° West  Level Estimated

Login

Don't have an account? Register now (free) for customized features, flight alerts, and more!